createdAt,value
2023-02-24T00:01:39.532Z,0.80
2023-02-24T00:04:10.494Z,0.98
2023-02-24T00:06:41.089Z,1.45
2023-02-24T00:09:12.032Z,1.00
2023-02-24T00:11:40.019Z,0.90
2023-02-24T00:14:10.712Z,0.90
2023-02-24T00:16:39.917Z,0.80
2023-02-24T00:19:09.119Z,0.80
2023-02-24T00:21:35.822Z,1.10
2023-02-24T00:24:02.753Z,0.85
2023-02-24T00:26:30.042Z,1.33
2023-02-24T00:29:00.096Z,1.75
2023-02-24T00:31:30.420Z,1.40
2023-02-24T00:33:57.630Z,1.48
2023-02-24T00:36:24.222Z,2.10
2023-02-24T00:38:57.499Z,2.40
2023-02-24T00:41:29.306Z,1.20
2023-02-24T00:44:07.320Z,1.65
2023-02-24T00:46:35.976Z,1.40
2023-02-24T00:49:05.586Z,1.33
2023-02-24T00:51:36.239Z,1.42
2023-02-24T00:54:03.009Z,1.92
2023-02-24T00:56:29.845Z,1.85
2023-02-24T00:58:57.665Z,1.40
2023-02-24T01:01:25.501Z,1.27
2023-02-24T01:03:56.658Z,2.35
2023-02-24T01:06:24.673Z,1.67
2023-02-24T01:08:52.689Z,2.47
2023-02-24T01:11:42.149Z,1.65
2023-02-24T01:14:10.129Z,1.77
2023-02-24T01:16:36.731Z,2.67
2023-02-24T01:19:05.088Z,1.55
2023-02-24T01:21:31.725Z,2.00
2023-02-24T01:23:58.201Z,2.45
2023-02-24T01:26:26.234Z,2.30
2023-02-24T01:28:53.809Z,2.00
2023-02-24T01:31:23.919Z,2.35
2023-02-24T01:33:50.692Z,3.50
2023-02-24T01:36:18.415Z,2.20
2023-02-24T01:38:45.064Z,2.42
2023-02-24T01:41:13.405Z,2.75
2023-02-24T01:43:58.993Z,3.42
2023-02-24T01:46:26.334Z,3.80
2023-02-24T01:48:54.733Z,3.05
2023-02-24T01:51:21.647Z,4.05
2023-02-24T01:53:49.323Z,3.08
2023-02-24T01:56:16.126Z,3.28
2023-02-24T01:58:43.014Z,3.15
2023-02-24T02:01:10.339Z,3.47
2023-02-24T02:03:39.481Z,3.83
2023-02-24T02:06:07.882Z,3.67
2023-02-24T02:08:38.089Z,3.53
2023-02-24T02:11:06.480Z,4.10
2023-02-24T02:13:35.941Z,3.92
2023-02-24T02:16:03.039Z,3.33
2023-02-24T02:18:34.868Z,4.07
2023-02-24T02:21:21.887Z,5.35
2023-02-24T02:23:54.228Z,4.38
2023-02-24T02:26:21.208Z,4.80
2023-02-24T02:28:50.674Z,5.05
2023-02-24T02:31:32.639Z,3.97
2023-02-24T02:33:59.973Z,5.53
2023-02-24T02:36:45.164Z,5.53
2023-02-24T02:39:17.978Z,5.47
2023-02-24T02:41:53.141Z,5.80
2023-02-24T02:44:22.576Z,5.03
2023-02-24T02:46:53.536Z,5.20
2023-02-24T02:49:22.142Z,7.20
2023-02-24T02:51:53.902Z,5.68
2023-02-24T02:54:33.560Z,5.93
2023-02-24T02:57:05.306Z,6.00
2023-02-24T02:59:35.104Z,5.78
2023-02-24T03:02:11.819Z,6.03
2023-02-24T03:04:42.933Z,6.72
2023-02-24T03:07:10.359Z,4.95
2023-02-24T03:09:39.905Z,8.85
2023-02-24T03:12:08.605Z,6.47
2023-02-24T03:14:37.987Z,5.40
2023-02-24T03:17:10.437Z,4.75
2023-02-24T03:19:39.523Z,5.15
2023-02-24T03:22:22.096Z,5.10
2023-02-24T03:24:48.824Z,4.93
2023-02-24T03:27:28.316Z,4.97
2023-02-24T03:30:00.443Z,6.25
2023-02-24T03:32:33.610Z,4.18
2023-02-24T03:35:00.441Z,4.60
2023-02-24T03:37:28.083Z,5.07
2023-02-24T03:39:56.607Z,4.88
2023-02-24T03:42:24.633Z,4.68
2023-02-24T03:44:51.134Z,6.15
2023-02-24T03:47:20.330Z,5.90
2023-02-24T03:49:47.441Z,4.90
2023-02-24T03:52:40.662Z,5.60
2023-02-24T03:55:13.904Z,6.13
2023-02-24T03:57:54.888Z,6.75
2023-02-24T04:00:26.736Z,5.28
2023-02-24T04:02:58.948Z,5.25
2023-02-24T04:05:27.595Z,5.10
2023-02-24T04:07:57.717Z,4.82
2023-02-24T04:10:27.333Z,6.13
2023-02-24T04:12:56.086Z,4.35
2023-02-24T04:15:26.211Z,6.18
2023-02-24T04:17:55.581Z,5.65
2023-02-24T04:20:24.425Z,7.50
2023-02-24T04:22:54.661Z,4.93
2023-02-24T04:25:24.807Z,5.47
2023-02-24T04:27:52.281Z,6.05
2023-02-24T04:30:19.947Z,5.93
2023-02-24T04:32:46.625Z,5.57
2023-02-24T04:35:15.737Z,7.00
2023-02-24T04:37:45.345Z,6.13
2023-02-24T04:40:13.022Z,4.47
2023-02-24T04:42:49.235Z,6.07
2023-02-24T04:45:21.895Z,6.90
2023-02-24T04:47:56.194Z,6.78
2023-02-24T04:50:24.250Z,5.70
2023-02-24T04:52:50.690Z,5.43
2023-02-24T04:55:17.514Z,5.97
2023-02-24T04:57:47.917Z,6.47
2023-02-24T05:00:21.276Z,5.97
2023-02-24T05:02:51.047Z,7.28
2023-02-24T05:05:18.125Z,4.93
2023-02-24T05:07:47.842Z,8.10
2023-02-24T05:10:15.384Z,6.53
2023-02-24T05:12:42.693Z,6.40
2023-02-24T05:15:09.405Z,5.47
2023-02-24T05:17:36.443Z,6.10
2023-02-24T05:20:21.586Z,5.65
2023-02-24T05:22:53.898Z,6.78
2023-02-24T05:25:20.772Z,5.68
2023-02-24T05:27:50.237Z,5.68
2023-02-24T05:30:16.721Z,6.20
2023-02-24T05:32:43.280Z,6.22
2023-02-24T05:35:10.838Z,5.28
2023-02-24T05:37:38.858Z,5.85
2023-02-24T05:40:06.038Z,5.93
2023-02-24T05:42:35.207Z,6.15
2023-02-24T05:45:02.097Z,5.60
2023-02-24T05:47:28.934Z,7.07
2023-02-24T05:49:56.926Z,5.35
2023-02-24T05:52:23.403Z,5.47
2023-02-24T05:54:49.988Z,5.10
2023-02-24T05:57:21.004Z,5.00
2023-02-24T05:59:51.087Z,5.20
2023-02-24T06:02:27.230Z,5.80
2023-02-24T06:04:54.341Z,5.75
2023-02-24T06:07:24.788Z,3.90
2023-02-24T06:09:56.693Z,4.07
2023-02-24T06:12:24.664Z,6.88
2023-02-24T06:14:51.124Z,4.60
2023-02-24T06:17:18.685Z,5.70
2023-02-24T06:19:46.050Z,4.40
2023-02-24T06:22:13.863Z,3.28
2023-02-24T06:24:44.469Z,6.93
2023-02-24T06:27:21.523Z,4.25
2023-02-24T06:29:52.689Z,3.95
2023-02-24T06:32:20.287Z,4.30
2023-02-24T06:34:46.929Z,11.18
2023-02-24T06:37:14.380Z,3.60
2023-02-24T06:39:41.318Z,6.30
2023-02-24T06:42:08.901Z,5.38
2023-02-24T06:44:36.303Z,3.38
2023-02-24T06:47:03.243Z,3.03
2023-02-24T06:49:29.729Z,3.83
2023-02-24T06:51:56.339Z,3.67
2023-02-24T06:54:23.164Z,4.03
2023-02-24T06:56:49.909Z,3.70
2023-02-24T06:59:21.677Z,3.13
2023-02-24T07:01:48.969Z,6.72
2023-02-24T07:04:15.982Z,4.57
2023-02-24T07:06:43.119Z,3.97
2023-02-24T07:09:13.782Z,3.60
2023-02-24T07:11:46.887Z,4.40
2023-02-24T07:14:13.465Z,2.60
2023-02-24T07:16:45.703Z,2.72
2023-02-24T07:19:15.967Z,3.33
2023-02-24T07:21:46.716Z,3.45
2023-02-24T07:24:14.704Z,2.60
2023-02-24T07:26:41.765Z,3.28
2023-02-24T07:29:09.275Z,2.78
2023-02-24T07:31:37.261Z,2.70
2023-02-24T07:34:03.832Z,2.60
2023-02-24T07:36:30.773Z,3.40
2023-02-24T07:38:58.750Z,4.80
2023-02-24T07:41:26.499Z,3.13
2023-02-24T07:43:54.056Z,3.33
2023-02-24T07:46:24.569Z,3.58
2023-02-24T07:48:55.154Z,2.85
2023-02-24T07:51:23.197Z,2.28
2023-02-24T07:53:52.370Z,2.92
2023-02-24T07:56:20.099Z,2.40
2023-02-24T07:58:50.953Z,3.42
2023-02-24T08:01:24.569Z,2.55
2023-02-24T08:03:56.293Z,3.38
2023-02-24T08:06:37.819Z,2.22
2023-02-24T08:09:32.178Z,2.03
2023-02-24T08:14:33.026Z,2.90
2023-02-24T08:16:59.589Z,3.25
2023-02-24T08:19:32.874Z,2.38
2023-02-24T08:22:19.267Z,2.35
2023-02-24T08:25:06.335Z,2.10
2023-02-24T08:27:34.072Z,2.42
2023-02-24T08:30:03.553Z,2.00
2023-02-24T08:32:34.550Z,1.77
2023-02-24T08:35:03.671Z,1.45
2023-02-24T08:37:34.551Z,1.75
2023-02-24T08:40:01.026Z,1.95
2023-02-24T08:42:34.747Z,2.00
2023-02-24T08:47:31.157Z,1.85
2023-02-24T08:50:01.975Z,1.55
2023-02-24T08:52:29.508Z,1.33
2023-02-24T08:55:01.730Z,1.70
2023-02-24T08:57:28.218Z,1.75
2023-02-24T09:00:00.689Z,2.17
2023-02-24T09:02:29.248Z,2.75
2023-02-24T09:05:07.330Z,2.05
2023-02-24T09:07:38.626Z,1.88
2023-02-24T09:10:08.131Z,2.10
2023-02-24T09:12:41.081Z,2.10
2023-02-24T09:15:08.103Z,1.40
2023-02-24T09:17:41.027Z,1.42
2023-02-24T09:20:36.238Z,2.13
2023-02-24T09:23:07.818Z,1.98
2023-02-24T09:25:41.771Z,1.80
2023-02-24T09:28:09.895Z,1.75
2023-02-24T09:30:51.574Z,1.52
2023-02-24T09:33:21.041Z,1.35
2023-02-24T09:35:50.562Z,1.63
2023-02-24T09:38:18.618Z,1.80
2023-02-24T09:40:49.241Z,1.20
2023-02-24T09:43:30.429Z,2.67
2023-02-24T09:46:02.150Z,1.80
2023-02-24T09:49:05.379Z,1.40
2023-02-24T09:51:42.274Z,1.63
2023-02-24T09:54:16.671Z,1.27
2023-02-24T09:57:08.322Z,1.67
2023-02-24T09:59:34.977Z,1.17
2023-02-24T10:02:20.245Z,2.40
2023-02-24T10:04:54.006Z,1.27
2023-02-24T10:07:38.497Z,1.95
2023-02-24T10:10:20.162Z,1.15
2023-02-24T10:12:52.702Z,1.60
2023-02-24T10:15:44.457Z,1.42
2023-02-24T10:18:27.354Z,2.45
2023-02-24T10:20:59.221Z,2.75
2023-02-24T10:23:35.809Z,1.00
2023-02-24T10:26:07.766Z,1.08
2023-02-24T10:28:52.011Z,1.05
2023-02-24T10:31:35.548Z,1.42
2023-02-24T10:34:06.328Z,1.55
2023-02-24T10:36:36.414Z,1.90
2023-02-24T10:39:20.595Z,2.58
2023-02-24T10:41:57.409Z,1.40
2023-02-24T10:44:25.536Z,1.42
2023-02-24T10:47:11.462Z,1.60
2023-02-24T10:49:57.074Z,2.28
2023-02-24T10:52:51.077Z,2.08
2023-02-24T10:55:44.228Z,1.83
2023-02-24T10:58:28.951Z,1.38
2023-02-24T11:01:20.993Z,1.48
2023-02-24T11:04:01.998Z,1.30
2023-02-24T11:06:52.581Z,1.10
2023-02-24T11:09:32.304Z,4.97
2023-02-24T11:12:17.252Z,7.78
2023-02-24T11:15:10.894Z,2.83
2023-02-24T11:17:38.433Z,1.50
2023-02-24T11:20:18.349Z,4.30
2023-02-24T11:22:47.819Z,2.58
2023-02-24T11:25:41.034Z,1.60
2023-02-24T11:28:48.360Z,1.30
2023-02-24T11:31:30.025Z,0.93
2023-02-24T11:34:06.121Z,1.10
2023-02-24T11:36:36.987Z,1.20
2023-02-24T11:39:20.478Z,1.75
2023-02-24T11:41:53.263Z,1.35
2023-02-24T11:44:52.270Z,1.63
2023-02-24T11:47:22.491Z,1.88
2023-02-24T11:49:55.496Z,1.52
2023-02-24T11:52:31.761Z,1.60
2023-02-24T11:55:00.668Z,1.98
2023-02-24T11:57:32.571Z,2.10
2023-02-24T12:00:05.484Z,2.78
2023-02-24T12:02:47.160Z,2.60
2023-02-24T12:05:18.522Z,2.25
2023-02-24T12:07:50.457Z,1.80
2023-02-24T12:10:17.881Z,1.90
2023-02-24T12:13:04.738Z,2.05
2023-02-24T12:15:34.226Z,1.50
2023-02-24T12:18:14.017Z,2.28
2023-02-24T12:20:41.536Z,3.00
2023-02-24T12:23:08.013Z,1.60
2023-02-24T12:25:41.754Z,2.17
2023-02-24T12:30:49.027Z,2.20
2023-02-24T12:33:25.075Z,1.70
2023-02-24T12:36:00.585Z,1.77
2023-02-24T12:38:27.041Z,2.58
2023-02-24T12:41:12.192Z,2.00
2023-02-24T12:44:01.423Z,1.98
2023-02-24T12:46:33.374Z,1.65
2023-02-24T12:49:11.915Z,1.95
2023-02-24T12:52:13.976Z,1.92
2023-02-24T12:54:40.494Z,1.30
2023-02-24T12:57:18.927Z,1.33
2023-02-24T12:59:45.812Z,1.58
2023-02-24T13:02:15.330Z,2.47
2023-02-24T13:04:51.447Z,1.70
2023-02-24T13:07:17.873Z,1.88
2023-02-24T13:10:04.416Z,2.50
2023-02-24T13:12:37.897Z,1.85
2023-02-24T13:15:05.441Z,2.40
2023-02-24T13:17:32.043Z,1.55
2023-02-24T13:20:09.156Z,1.30
2023-02-24T13:22:40.983Z,1.90
2023-02-24T13:25:07.463Z,1.85
2023-02-24T13:27:35.406Z,1.85
2023-02-24T13:30:07.954Z,2.17
2023-02-24T13:32:40.237Z,0.98
2023-02-24T13:35:26.843Z,3.20
2023-02-24T13:37:53.964Z,1.70
2023-02-24T13:40:22.458Z,1.48
2023-02-24T13:43:01.146Z,1.85
2023-02-24T13:45:34.869Z,2.10
2023-02-24T13:48:07.432Z,5.72
2023-02-24T13:50:46.578Z,1.88
2023-02-24T13:53:28.132Z,9.05
2023-02-24T13:56:01.257Z,1.95
2023-02-24T13:58:43.083Z,1.48
2023-02-24T14:01:11.081Z,1.50
2023-02-24T14:03:39.946Z,1.80
2023-02-24T14:06:07.168Z,1.80
2023-02-24T14:08:51.064Z,1.80
2023-02-24T14:11:17.978Z,1.17
2023-02-24T14:13:49.425Z,1.67
2023-02-24T14:16:26.629Z,1.73
2023-02-24T14:18:54.672Z,1.58
2023-02-24T14:21:22.646Z,1.40
2023-02-24T14:23:55.454Z,1.58
2023-02-24T14:26:22.406Z,1.37
2023-02-24T14:28:55.138Z,2.10
2023-02-24T14:31:22.674Z,1.50
2023-02-24T14:33:53.175Z,1.42
2023-02-24T14:36:27.431Z,1.65
2023-02-24T14:39:01.836Z,1.63
2023-02-24T14:41:28.309Z,0.93
2023-02-24T14:43:56.403Z,1.67
2023-02-24T14:46:24.029Z,1.83
2023-02-24T14:48:54.841Z,2.05
2023-02-24T14:51:31.273Z,1.77
2023-02-24T14:53:59.709Z,1.98
2023-02-24T14:56:30.457Z,1.50
2023-02-24T14:59:08.724Z,2.05
2023-02-24T15:01:39.876Z,1.80
2023-02-24T15:04:14.717Z,1.90
2023-02-24T15:06:42.583Z,1.75
2023-02-24T15:09:14.700Z,1.50
2023-02-24T15:11:41.543Z,2.22
2023-02-24T15:14:16.201Z,1.00
2023-02-24T15:16:44.155Z,2.50
2023-02-24T15:19:29.597Z,1.88
2023-02-24T15:21:56.132Z,1.40
2023-02-24T15:24:27.118Z,1.67
2023-02-24T15:26:53.592Z,1.50
2023-02-24T15:29:27.776Z,1.67
2023-02-24T15:31:55.543Z,1.92
2023-02-24T15:34:34.914Z,1.92
2023-02-24T15:37:13.722Z,1.50
2023-02-24T15:39:42.540Z,1.75
2023-02-24T15:42:18.116Z,3.30
2023-02-24T15:44:57.725Z,1.63
2023-02-24T15:47:25.765Z,2.08
2023-02-24T15:49:52.285Z,1.50
2023-02-24T15:52:28.588Z,1.58
2023-02-24T15:54:56.664Z,1.50
2023-02-24T15:57:23.536Z,2.00
2023-02-24T15:59:50.030Z,1.88
2023-02-24T16:02:19.768Z,1.40
2023-02-24T16:04:47.017Z,1.75
2023-02-24T16:07:17.506Z,1.15
2023-02-24T16:09:45.499Z,2.53
2023-02-24T16:12:14.991Z,5.82
2023-02-24T16:14:42.051Z,8.80
2023-02-24T16:17:16.574Z,2.40
2023-02-24T16:19:44.290Z,2.22
2023-02-24T16:22:10.922Z,2.25
2023-02-24T16:24:38.219Z,2.03
2023-02-24T16:27:06.235Z,1.65
2023-02-24T16:29:32.765Z,2.17
2023-02-24T16:31:59.527Z,2.15
2023-02-24T16:34:26.179Z,2.55
2023-02-24T16:36:52.736Z,3.03
2023-02-24T16:39:19.440Z,2.78
2023-02-24T16:41:45.943Z,2.40
2023-02-24T16:44:12.470Z,2.53
2023-02-24T16:46:41.244Z,2.08
2023-02-24T16:49:10.120Z,2.22
2023-02-24T16:51:39.083Z,2.25
2023-02-24T16:54:05.791Z,3.55
2023-02-24T16:56:32.248Z,2.92
2023-02-24T16:58:58.733Z,2.20
2023-02-24T17:01:25.316Z,1.83
2023-02-24T17:03:53.935Z,1.40
2023-02-24T17:06:22.361Z,2.15
2023-02-24T17:08:50.164Z,1.38
2023-02-24T17:11:19.178Z,1.50
2023-02-24T17:13:45.676Z,1.83
2023-02-24T17:16:12.405Z,1.55
2023-02-24T17:18:38.885Z,1.95
2023-02-24T17:21:05.514Z,1.63
2023-02-24T17:23:32.582Z,1.52
2023-02-24T17:26:00.465Z,2.40
2023-02-24T17:28:27.029Z,1.73
2023-02-24T17:30:53.656Z,1.60
2023-02-24T17:33:20.269Z,1.92
2023-02-24T17:35:47.775Z,1.95
2023-02-24T17:38:14.752Z,1.40
2023-02-24T17:40:41.673Z,1.30
2023-02-24T17:43:08.189Z,1.88
2023-02-24T17:45:34.825Z,1.73
2023-02-24T17:48:01.730Z,2.15
2023-02-24T17:50:28.460Z,2.30
2023-02-24T17:52:56.732Z,1.52
2023-02-24T17:55:23.288Z,1.92
2023-02-24T17:57:49.778Z,3.47
2023-02-24T18:00:16.574Z,1.55
2023-02-24T18:02:43.176Z,1.92
2023-02-24T18:05:10.335Z,2.10
2023-02-24T18:07:37.007Z,1.73
2023-02-24T18:10:03.914Z,1.88
2023-02-24T18:12:30.453Z,2.20
2023-02-24T18:15:07.709Z,2.03
2023-02-24T18:17:35.847Z,1.75
2023-02-24T18:20:02.504Z,1.35
2023-02-24T18:22:29.104Z,1.55
2023-02-24T18:24:55.626Z,2.20
2023-02-24T18:27:22.380Z,1.75
2023-02-24T18:29:48.869Z,1.63
2023-02-24T18:32:15.610Z,2.25
2023-02-24T18:34:42.305Z,1.65
2023-02-24T18:37:08.765Z,2.63
2023-02-24T18:39:35.254Z,2.03
2023-02-24T18:42:01.770Z,2.67
2023-02-24T18:44:28.304Z,2.10
2023-02-24T18:46:54.826Z,2.80
2023-02-24T18:49:21.457Z,3.28
2023-02-24T18:51:49.043Z,3.03
2023-02-24T18:54:16.214Z,3.78
2023-02-24T18:56:42.901Z,4.93
2023-02-24T18:59:09.453Z,4.65
2023-02-24T19:01:38.660Z,3.25
2023-02-24T19:04:06.168Z,2.80
2023-02-24T19:06:32.725Z,2.35
2023-02-24T19:09:05.986Z,2.28
2023-02-24T19:11:32.955Z,1.70
2023-02-24T19:14:00.724Z,2.47
2023-02-24T19:16:27.771Z,2.78
2023-02-24T19:18:55.692Z,2.83
2023-02-24T19:21:22.585Z,2.50
2023-02-24T19:23:49.477Z,2.58
2023-02-24T19:26:17.156Z,1.77
2023-02-24T19:28:43.863Z,2.38
2023-02-24T19:31:14.629Z,2.20
2023-02-24T19:33:41.336Z,2.55
2023-02-24T19:36:08.332Z,2.15
2023-02-24T19:38:34.899Z,1.90
2023-02-24T19:41:01.365Z,1.95
2023-02-24T19:43:27.910Z,2.75
2023-02-24T19:45:54.505Z,2.33
2023-02-24T19:48:21.014Z,2.53
2023-02-24T19:50:47.492Z,2.30
2023-02-24T19:53:13.985Z,2.67
2023-02-24T19:55:40.446Z,1.75
2023-02-24T19:58:06.958Z,2.53
2023-02-24T20:00:33.430Z,2.17
2023-02-24T20:03:00.045Z,1.20
2023-02-24T20:05:26.509Z,3.03
2023-02-24T20:07:52.976Z,1.60
2023-02-24T20:10:19.679Z,4.85
2023-02-24T20:12:46.181Z,2.38
2023-02-24T20:15:12.701Z,2.58
2023-02-24T20:17:39.203Z,4.55
2023-02-24T20:20:06.019Z,2.47
2023-02-24T20:22:32.515Z,3.10
2023-02-24T20:24:58.998Z,3.55
2023-02-24T20:27:25.473Z,5.10
2023-02-24T20:29:53.642Z,3.05
2023-02-24T20:32:20.362Z,3.03
2023-02-24T20:34:47.145Z,3.72
2023-02-24T20:37:13.651Z,2.95
2023-02-24T20:39:40.176Z,2.33
2023-02-24T20:42:06.810Z,3.63
2023-02-24T20:44:33.744Z,3.25
2023-02-24T20:47:00.290Z,3.03
2023-02-24T20:49:27.310Z,3.15
2023-02-24T20:51:53.842Z,3.13
2023-02-24T20:54:20.713Z,2.67
2023-02-24T20:56:48.193Z,2.60
2023-02-24T20:59:15.999Z,3.58
2023-02-24T21:01:46.496Z,2.72
2023-02-24T21:04:13.897Z,2.03
2023-02-24T21:06:41.139Z,2.10
2023-02-24T21:09:08.008Z,2.50
2023-02-24T21:11:34.605Z,2.22
2023-02-24T21:14:01.175Z,3.03
2023-02-24T21:16:28.135Z,2.20
2023-02-24T21:18:56.382Z,2.55
2023-02-24T21:21:22.898Z,2.08
2023-02-24T21:23:50.463Z,3.78
2023-02-24T21:26:17.451Z,2.15
2023-02-24T21:28:46.365Z,2.20
2023-02-24T21:31:14.615Z,2.63
2023-02-24T21:33:41.203Z,2.00
2023-02-24T21:36:11.750Z,2.55
2023-02-24T21:38:38.898Z,2.25
2023-02-24T21:41:07.534Z,3.78
2023-02-24T21:43:34.574Z,11.77
2023-02-24T21:46:05.559Z,3.05
2023-02-24T21:48:32.720Z,8.48
2023-02-24T21:51:05.421Z,4.13
2023-02-24T21:53:33.820Z,3.38
2023-02-24T21:56:04.517Z,4.07
2023-02-24T21:58:32.093Z,3.90
2023-02-24T22:00:58.744Z,3.78
2023-02-24T22:03:25.476Z,4.43
2023-02-24T22:05:53.716Z,4.38
2023-02-24T22:08:20.252Z,3.50
2023-02-24T22:10:47.429Z,2.60
2023-02-24T22:13:13.920Z,3.25
2023-02-24T22:15:40.368Z,2.17
2023-02-24T22:18:07.507Z,3.55
2023-02-24T22:20:33.979Z,3.15
2023-02-24T22:23:00.456Z,2.10
2023-02-24T22:25:26.917Z,2.42
2023-02-24T22:27:53.369Z,4.32
2023-02-24T22:30:19.921Z,2.55
2023-02-24T22:32:46.459Z,2.00
2023-02-24T22:35:12.975Z,2.65
2023-02-24T22:37:39.526Z,2.20
2023-02-24T22:40:06.394Z,2.25
2023-02-24T22:42:32.859Z,2.05
2023-02-24T22:45:00.307Z,2.70
2023-02-24T22:47:26.866Z,2.65
2023-02-24T22:49:53.725Z,2.20
2023-02-24T22:52:20.379Z,3.25
2023-02-24T22:54:46.860Z,2.63
2023-02-24T22:57:14.470Z,2.33
2023-02-24T22:59:40.925Z,2.00
2023-02-24T23:02:09.515Z,3.38
2023-02-24T23:04:36.127Z,2.88
2023-02-24T23:07:02.899Z,1.60
2023-02-24T23:09:29.531Z,3.13
2023-02-24T23:11:56.018Z,3.92
2023-02-24T23:14:22.501Z,2.20
2023-02-24T23:16:53.625Z,2.22
2023-02-24T23:19:20.826Z,3.45
2023-02-24T23:21:49.790Z,4.07
2023-02-24T23:24:17.093Z,2.33
2023-02-24T23:26:45.231Z,3.15
2023-02-24T23:29:13.078Z,2.78
2023-02-24T23:31:40.683Z,2.90
2023-02-24T23:34:07.639Z,1.98
2023-02-24T23:36:38.558Z,2.13
2023-02-24T23:39:05.988Z,2.65
2023-02-24T23:41:33.759Z,2.25
2023-02-24T23:44:00.293Z,2.72
2023-02-24T23:46:26.755Z,2.65
2023-02-24T23:48:53.793Z,2.50
2023-02-24T23:51:20.608Z,3.10
2023-02-24T23:53:47.991Z,1.98
2023-02-24T23:56:20.366Z,2.65
2023-02-24T23:58:50.228Z,3.10
